sensor_id;sensor_type;location;lat;lon;timestamp;P1;durP1;ratioP1;P2;durP2;ratioP2
21168;SDS011;10742;51.816;8.662;2022-11-15T00:01:58;11.50;;;5.13;;
21168;SDS011;10742;51.816;8.662;2022-11-15T00:05:38;11.27;;;4.47;;
21168;SDS011;10742;51.816;8.662;2022-11-15T00:09:18;11.90;;;4.63;;
21168;SDS011;10742;51.816;8.662;2022-11-15T00:12:58;9.30;;;4.30;;
21168;SDS011;10742;51.816;8.662;2022-11-15T00:16:37;10.50;;;4.50;;
21168;SDS011;10742;51.816;8.662;2022-11-15T00:20:17;9.30;;;4.07;;
21168;SDS011;10742;51.816;8.662;2022-11-15T00:23:58;10.23;;;4.70;;
21168;SDS011;10742;51.816;8.662;2022-11-15T00:27:37;8.77;;;4.17;;
21168;SDS011;10742;51.816;8.662;2022-11-15T00:31:17;9.27;;;4.07;;
21168;SDS011;10742;51.816;8.662;2022-11-15T00:34:38;10.87;;;4.53;;
21168;SDS011;10742;51.816;8.662;2022-11-15T00:37:59;10.60;;;5.00;;
21168;SDS011;10742;51.816;8.662;2022-11-15T00:41:21;12.63;;;4.67;;
21168;SDS011;10742;51.816;8.662;2022-11-15T00:44:42;8.47;;;4.50;;
21168;SDS011;10742;51.816;8.662;2022-11-15T00:48:03;10.43;;;4.47;;
21168;SDS011;10742;51.816;8.662;2022-11-15T00:51:25;11.10;;;5.07;;
21168;SDS011;10742;51.816;8.662;2022-11-15T00:55:05;12.07;;;4.87;;
21168;SDS011;10742;51.816;8.662;2022-11-15T00:58:45;13.83;;;5.47;;
21168;SDS011;10742;51.816;8.662;2022-11-15T01:02:24;13.87;;;5.53;;
21168;SDS011;10742;51.816;8.662;2022-11-15T01:06:05;12.33;;;5.03;;
21168;SDS011;10742;51.816;8.662;2022-11-15T01:09:45;12.67;;;5.20;;
21168;SDS011;10742;51.816;8.662;2022-11-15T01:13:25;12.47;;;5.83;;
21168;SDS011;10742;51.816;8.662;2022-11-15T01:17:05;12.83;;;5.67;;
21168;SDS011;10742;51.816;8.662;2022-11-15T01:20:45;15.10;;;5.50;;
21168;SDS011;10742;51.816;8.662;2022-11-15T01:24:24;14.53;;;6.00;;
21168;SDS011;10742;51.816;8.662;2022-11-15T01:28:04;13.07;;;5.73;;
21168;SDS011;10742;51.816;8.662;2022-11-15T01:31:43;10.23;;;5.40;;
21168;SDS011;10742;51.816;8.662;2022-11-15T01:35:23;15.40;;;6.40;;
21168;SDS011;10742;51.816;8.662;2022-11-15T01:39:03;13.17;;;5.83;;
21168;SDS011;10742;51.816;8.662;2022-11-15T01:42:24;14.20;;;5.97;;
21168;SDS011;10742;51.816;8.662;2022-11-15T01:45:46;16.53;;;6.17;;
21168;SDS011;10742;51.816;8.662;2022-11-15T01:49:35;14.33;;;6.40;;
21168;SDS011;10742;51.816;8.662;2022-11-15T01:52:59;15.77;;;6.50;;
21168;SDS011;10742;51.816;8.662;2022-11-15T01:56:22;15.70;;;6.23;;
21168;SDS011;10742;51.816;8.662;2022-11-15T01:59:45;15.37;;;6.90;;
21168;SDS011;10742;51.816;8.662;2022-11-15T02:03:07;16.23;;;6.97;;
21168;SDS011;10742;51.816;8.662;2022-11-15T02:06:28;21.30;;;6.93;;
21168;SDS011;10742;51.816;8.662;2022-11-15T02:10:09;15.20;;;7.07;;
21168;SDS011;10742;51.816;8.662;2022-11-15T02:13:51;15.77;;;7.50;;
21168;SDS011;10742;51.816;8.662;2022-11-15T02:41:30;19.20;;;8.70;;
21168;SDS011;10742;51.816;8.662;2022-11-15T02:45:19;17.97;;;8.53;;
21168;SDS011;10742;51.816;8.662;2022-11-15T02:49:03;18.53;;;9.17;;
21168;SDS011;10742;51.816;8.662;2022-11-15T02:52:25;20.07;;;8.90;;
21168;SDS011;10742;51.816;8.662;2022-11-15T02:55:47;19.90;;;9.27;;
21168;SDS011;10742;51.816;8.662;2022-11-15T02:59:26;26.60;;;11.93;;
21168;SDS011;10742;51.816;8.662;2022-11-15T03:14:24;24.17;;;11.40;;
21168;SDS011;10742;51.816;8.662;2022-11-15T03:18:01;24.23;;;10.13;;
21168;SDS011;10742;51.816;8.662;2022-11-15T03:21:27;22.13;;;9.87;;
21168;SDS011;10742;51.816;8.662;2022-11-15T03:24:56;21.90;;;10.17;;
21168;SDS011;10742;51.816;8.662;2022-11-15T03:28:22;19.37;;;9.60;;
21168;SDS011;10742;51.816;8.662;2022-11-15T03:31:53;22.77;;;10.30;;
21168;SDS011;10742;51.816;8.662;2022-11-15T03:35:30;21.63;;;10.27;;
21168;SDS011;10742;51.816;8.662;2022-11-15T03:39:18;15.30;;;8.07;;
21168;SDS011;10742;51.816;8.662;2022-11-15T03:43:13;19.40;;;9.27;;
21168;SDS011;10742;51.816;8.662;2022-11-15T03:50:50;21.43;;;9.70;;
21168;SDS011;10742;51.816;8.662;2022-11-15T03:54:12;26.47;;;12.77;;
21168;SDS011;10742;51.816;8.662;2022-11-15T03:57:33;25.00;;;12.13;;
21168;SDS011;10742;51.816;8.662;2022-11-15T04:00:54;21.53;;;10.30;;
21168;SDS011;10742;51.816;8.662;2022-11-15T04:04:16;24.63;;;11.17;;
21168;SDS011;10742;51.816;8.662;2022-11-15T04:07:36;32.70;;;12.77;;
21168;SDS011;10742;51.816;8.662;2022-11-15T04:10:57;31.27;;;15.50;;
21168;SDS011;10742;51.816;8.662;2022-11-15T04:14:19;23.20;;;12.37;;
21168;SDS011;10742;51.816;8.662;2022-11-15T04:17:41;34.83;;;14.23;;
21168;SDS011;10742;51.816;8.662;2022-11-15T04:21:10;47.30;;;18.73;;
21168;SDS011;10742;51.816;8.662;2022-11-15T04:24:49;37.23;;;15.63;;
21168;SDS011;10742;51.816;8.662;2022-11-15T04:28:10;45.07;;;17.83;;
21168;SDS011;10742;51.816;8.662;2022-11-15T04:31:32;46.90;;;18.27;;
21168;SDS011;10742;51.816;8.662;2022-11-15T04:34:53;42.47;;;20.27;;
21168;SDS011;10742;51.816;8.662;2022-11-15T04:38:14;70.40;;;25.93;;
21168;SDS011;10742;51.816;8.662;2022-11-15T04:41:35;80.60;;;27.77;;
21168;SDS011;10742;51.816;8.662;2022-11-15T04:44:56;102.77;;;29.43;;
21168;SDS011;10742;51.816;8.662;2022-11-15T04:48:18;74.90;;;31.80;;
21168;SDS011;10742;51.816;8.662;2022-11-15T04:51:39;82.97;;;32.13;;
21168;SDS011;10742;51.816;8.662;2022-11-15T04:55:00;74.13;;;31.83;;
21168;SDS011;10742;51.816;8.662;2022-11-15T04:58:24;136.63;;;42.60;;
21168;SDS011;10742;51.816;8.662;2022-11-15T05:01:45;89.27;;;39.67;;
21168;SDS011;10742;51.816;8.662;2022-11-15T05:05:06;121.30;;;42.67;;
21168;SDS011;10742;51.816;8.662;2022-11-15T05:08:28;101.70;;;45.20;;
21168;SDS011;10742;51.816;8.662;2022-11-15T05:11:49;174.03;;;55.17;;
21168;SDS011;10742;51.816;8.662;2022-11-15T05:15:09;141.37;;;49.03;;
21168;SDS011;10742;51.816;8.662;2022-11-15T05:18:30;160.60;;;54.47;;
21168;SDS011;10742;51.816;8.662;2022-11-15T05:21:52;126.57;;;49.83;;
21168;SDS011;10742;51.816;8.662;2022-11-15T05:25:13;163.70;;;52.10;;
21168;SDS011;10742;51.816;8.662;2022-11-15T05:28:35;170.43;;;53.40;;
21168;SDS011;10742;51.816;8.662;2022-11-15T05:31:56;213.27;;;61.97;;
21168;SDS011;10742;51.816;8.662;2022-11-15T05:35:34;187.03;;;59.47;;
21168;SDS011;10742;51.816;8.662;2022-11-15T05:39:02;162.73;;;51.13;;
21168;SDS011;10742;51.816;8.662;2022-11-15T05:42:24;145.60;;;47.83;;
21168;SDS011;10742;51.816;8.662;2022-11-15T05:45:48;204.17;;;62.20;;
21168;SDS011;10742;51.816;8.662;2022-11-15T05:49:10;228.03;;;67.10;;
21168;SDS011;10742;51.816;8.662;2022-11-15T05:52:34;169.87;;;58.97;;
21168;SDS011;10742;51.816;8.662;2022-11-15T05:55:57;150.57;;;45.17;;
21168;SDS011;10742;51.816;8.662;2022-11-15T05:59:18;107.70;;;40.00;;
21168;SDS011;10742;51.816;8.662;2022-11-15T06:02:40;138.43;;;41.73;;
21168;SDS011;10742;51.816;8.662;2022-11-15T06:06:01;146.10;;;45.23;;
21168;SDS011;10742;51.816;8.662;2022-11-15T06:09:22;138.90;;;41.27;;
21168;SDS011;10742;51.816;8.662;2022-11-15T06:12:43;129.80;;;40.40;;
21168;SDS011;10742;51.816;8.662;2022-11-15T06:16:04;118.57;;;34.90;;
21168;SDS011;10742;51.816;8.662;2022-11-15T06:19:26;98.13;;;32.43;;
21168;SDS011;10742;51.816;8.662;2022-11-15T06:22:47;79.70;;;29.70;;
21168;SDS011;10742;51.816;8.662;2022-11-15T06:26:08;91.13;;;30.87;;
21168;SDS011;10742;51.816;8.662;2022-11-15T06:29:29;89.53;;;27.57;;
21168;SDS011;10742;51.816;8.662;2022-11-15T06:32:50;61.43;;;25.90;;
21168;SDS011;10742;51.816;8.662;2022-11-15T06:36:30;68.70;;;26.63;;
21168;SDS011;10742;51.816;8.662;2022-11-15T06:40:10;42.80;;;17.07;;
21168;SDS011;10742;51.816;8.662;2022-11-15T06:43:50;45.83;;;18.63;;
21168;SDS011;10742;51.816;8.662;2022-11-15T06:47:30;28.73;;;13.23;;
21168;SDS011;10742;51.816;8.662;2022-11-15T06:51:09;35.40;;;13.47;;
21168;SDS011;10742;51.816;8.662;2022-11-15T06:54:30;36.27;;;13.73;;
21168;SDS011;10742;51.816;8.662;2022-11-15T06:57:51;46.90;;;15.57;;
21168;SDS011;10742;51.816;8.662;2022-11-15T07:01:13;32.33;;;13.40;;
21168;SDS011;10742;51.816;8.662;2022-11-15T07:04:34;37.90;;;14.27;;
21168;SDS011;10742;51.816;8.662;2022-11-15T07:07:57;27.50;;;13.43;;
21168;SDS011;10742;51.816;8.662;2022-11-15T07:11:18;39.47;;;15.33;;
21168;SDS011;10742;51.816;8.662;2022-11-15T07:14:40;35.17;;;14.17;;
21168;SDS011;10742;51.816;8.662;2022-11-15T07:18:20;23.27;;;12.57;;
21168;SDS011;10742;51.816;8.662;2022-11-15T07:21:59;24.77;;;12.00;;
21168;SDS011;10742;51.816;8.662;2022-11-15T07:25:39;32.33;;;13.83;;
21168;SDS011;10742;51.816;8.662;2022-11-15T07:29:19;30.00;;;14.47;;
21168;SDS011;10742;51.816;8.662;2022-11-15T07:32:59;35.23;;;14.27;;
21168;SDS011;10742;51.816;8.662;2022-11-15T07:36:39;23.63;;;11.03;;
21168;SDS011;10742;51.816;8.662;2022-11-15T07:40:18;20.53;;;10.47;;
21168;SDS011;10742;51.816;8.662;2022-11-15T07:43:58;18.77;;;10.20;;
21168;SDS011;10742;51.816;8.662;2022-11-15T07:47:37;18.70;;;8.80;;
21168;SDS011;10742;51.816;8.662;2022-11-15T07:51:17;14.07;;;7.13;;
21168;SDS011;10742;51.816;8.662;2022-11-15T07:54:39;13.70;;;7.23;;
21168;SDS011;10742;51.816;8.662;2022-11-15T07:58:01;15.37;;;6.53;;
21168;SDS011;10742;51.816;8.662;2022-11-15T08:01:41;11.87;;;6.13;;
21168;SDS011;10742;51.816;8.662;2022-11-15T08:05:21;14.93;;;6.73;;
21168;SDS011;10742;51.816;8.662;2022-11-15T08:09:01;10.30;;;5.67;;
21168;SDS011;10742;51.816;8.662;2022-11-15T08:12:41;13.03;;;5.60;;
21168;SDS011;10742;51.816;8.662;2022-11-15T08:16:20;12.60;;;5.77;;
21168;SDS011;10742;51.816;8.662;2022-11-15T08:20:00;13.57;;;5.40;;
21168;SDS011;10742;51.816;8.662;2022-11-15T08:23:40;12.33;;;6.17;;
21168;SDS011;10742;51.816;8.662;2022-11-15T08:27:19;11.97;;;5.60;;
21168;SDS011;10742;51.816;8.662;2022-11-15T08:30:59;9.60;;;5.60;;
21168;SDS011;10742;51.816;8.662;2022-11-15T08:34:40;11.57;;;5.90;;
21168;SDS011;10742;51.816;8.662;2022-11-15T08:38:19;11.63;;;5.60;;
21168;SDS011;10742;51.816;8.662;2022-11-15T08:41:59;9.77;;;5.80;;
21168;SDS011;10742;51.816;8.662;2022-11-15T08:45:39;10.10;;;5.47;;
21168;SDS011;10742;51.816;8.662;2022-11-15T08:49:18;9.50;;;5.17;;
21168;SDS011;10742;51.816;8.662;2022-11-15T08:53:03;15.77;;;6.40;;
21168;SDS011;10742;51.816;8.662;2022-11-15T08:56:47;9.77;;;5.30;;
21168;SDS011;10742;51.816;8.662;2022-11-15T09:00:27;11.47;;;5.43;;
21168;SDS011;10742;51.816;8.662;2022-11-15T09:04:06;7.40;;;4.03;;
21168;SDS011;10742;51.816;8.662;2022-11-15T09:07:46;5.03;;;3.73;;
21168;SDS011;10742;51.816;8.662;2022-11-15T09:11:26;9.80;;;4.13;;
21168;SDS011;10742;51.816;8.662;2022-11-15T09:15:06;8.47;;;3.57;;
21168;SDS011;10742;51.816;8.662;2022-11-15T09:18:47;7.90;;;4.00;;
21168;SDS011;10742;51.816;8.662;2022-11-15T09:22:09;9.63;;;4.50;;
21168;SDS011;10742;51.816;8.662;2022-11-15T09:25:30;9.17;;;4.17;;
21168;SDS011;10742;51.816;8.662;2022-11-15T09:28:51;7.90;;;4.13;;
21168;SDS011;10742;51.816;8.662;2022-11-15T09:32:12;8.37;;;4.07;;
21168;SDS011;10742;51.816;8.662;2022-11-15T09:35:33;6.30;;;3.80;;
21168;SDS011;10742;51.816;8.662;2022-11-15T09:38:56;8.87;;;3.67;;
21168;SDS011;10742;51.816;8.662;2022-11-15T09:49:56;6.67;;;3.70;;
21168;SDS011;10742;51.816;8.662;2022-11-15T09:53:11;7.47;;;3.93;;
21168;SDS011;10742;51.816;8.662;2022-11-15T09:56:35;8.27;;;4.00;;
21168;SDS011;10742;51.816;8.662;2022-11-15T10:03:10;8.30;;;3.63;;
21168;SDS011;10742;51.816;8.662;2022-11-15T10:06:36;6.27;;;3.03;;
21168;SDS011;10742;51.816;8.662;2022-11-15T10:09:53;7.63;;;3.80;;
21168;SDS011;10742;51.816;8.662;2022-11-15T10:12:58;10.97;;;4.27;;
21168;SDS011;10742;51.816;8.662;2022-11-15T10:16:17;11.73;;;3.83;;
21168;SDS011;10742;51.816;8.662;2022-11-15T10:22:53;7.90;;;3.60;;
21168;SDS011;10742;51.816;8.662;2022-11-15T10:26:04;7.03;;;3.07;;
21168;SDS011;10742;51.816;8.662;2022-11-15T10:29:11;7.83;;;3.23;;
21168;SDS011;10742;51.816;8.662;2022-11-15T10:32:27;7.23;;;2.80;;
21168;SDS011;10742;51.816;8.662;2022-11-15T10:35:31;5.83;;;3.00;;
21168;SDS011;10742;51.816;8.662;2022-11-15T10:41:51;3.10;;;2.17;;
21168;SDS011;10742;51.816;8.662;2022-11-15T10:44:54;4.10;;;2.30;;
21168;SDS011;10742;51.816;8.662;2022-11-15T10:48:18;4.80;;;2.63;;
21168;SDS011;10742;51.816;8.662;2022-11-15T10:51:20;3.47;;;1.93;;
21168;SDS011;10742;51.816;8.662;2022-11-15T10:57:36;2.67;;;2.00;;
21168;SDS011;10742;51.816;8.662;2022-11-15T11:00:40;1.77;;;1.60;;
21168;SDS011;10742;51.816;8.662;2022-11-15T11:03:44;3.03;;;1.80;;
21168;SDS011;10742;51.816;8.662;2022-11-15T11:07:08;6.17;;;1.77;;
21168;SDS011;10742;51.816;8.662;2022-11-15T11:10:23;2.40;;;1.80;;
21168;SDS011;10742;51.816;8.662;2022-11-15T11:13:46;3.10;;;1.40;;
21168;SDS011;10742;51.816;8.662;2022-11-15T11:16:58;3.17;;;1.70;;
21168;SDS011;10742;51.816;8.662;2022-11-15T11:23:38;4.20;;;2.10;;
21168;SDS011;10742;51.816;8.662;2022-11-15T11:27:18;3.73;;;2.03;;
21168;SDS011;10742;51.816;8.662;2022-11-15T11:42:06;2.67;;;1.73;;
21168;SDS011;10742;51.816;8.662;2022-11-15T11:45:41;2.47;;;1.90;;
21168;SDS011;10742;51.816;8.662;2022-11-15T11:49:23;1.83;;;1.70;;
21168;SDS011;10742;51.816;8.662;2022-11-15T11:53:02;4.20;;;2.67;;
21168;SDS011;10742;51.816;8.662;2022-11-15T11:56:29;2.40;;;1.80;;
21168;SDS011;10742;51.816;8.662;2022-11-15T11:59:56;9.40;;;3.80;;
21168;SDS011;10742;51.816;8.662;2022-11-15T12:03:38;3.63;;;2.20;;
21168;SDS011;10742;51.816;8.662;2022-11-15T12:10:47;3.53;;;1.93;;
21168;SDS011;10742;51.816;8.662;2022-11-15T12:17:50;4.20;;;2.07;;
21168;SDS011;10742;51.816;8.662;2022-11-15T12:25:15;16.80;;;7.37;;
21168;SDS011;10742;51.816;8.662;2022-11-15T12:28:43;4.03;;;2.50;;
21168;SDS011;10742;51.816;8.662;2022-11-15T12:32:31;2.30;;;1.50;;
21168;SDS011;10742;51.816;8.662;2022-11-15T12:36:03;4.00;;;1.47;;
21168;SDS011;10742;51.816;8.662;2022-11-15T12:47:00;4.30;;;2.10;;
21168;SDS011;10742;51.816;8.662;2022-11-15T12:57:58;3.73;;;2.10;;
21168;SDS011;10742;51.816;8.662;2022-11-15T13:02:09;2.60;;;2.20;;
21168;SDS011;10742;51.816;8.662;2022-11-15T13:06:00;5.43;;;2.23;;
21168;SDS011;10742;51.816;8.662;2022-11-15T13:13:02;4.07;;;2.27;;
21168;SDS011;10742;51.816;8.662;2022-11-15T13:16:28;4.17;;;2.03;;
21168;SDS011;10742;51.816;8.662;2022-11-15T13:20:09;3.23;;;2.27;;
21168;SDS011;10742;51.816;8.662;2022-11-15T13:23:36;3.47;;;2.30;;
21168;SDS011;10742;51.816;8.662;2022-11-15T13:26:57;4.73;;;2.33;;
21168;SDS011;10742;51.816;8.662;2022-11-15T13:30:20;3.33;;;2.23;;
21168;SDS011;10742;51.816;8.662;2022-11-15T13:33:43;4.33;;;2.40;;
21168;SDS011;10742;51.816;8.662;2022-11-15T13:37:09;4.67;;;2.00;;
21168;SDS011;10742;51.816;8.662;2022-11-15T13:40:48;3.83;;;2.40;;
21168;SDS011;10742;51.816;8.662;2022-11-15T13:44:17;7.63;;;2.50;;
21168;SDS011;10742;51.816;8.662;2022-11-15T13:47:44;4.63;;;2.00;;
21168;SDS011;10742;51.816;8.662;2022-11-15T13:51:10;3.50;;;1.90;;
21168;SDS011;10742;51.816;8.662;2022-11-15T13:58:18;3.53;;;2.17;;
21168;SDS011;10742;51.816;8.662;2022-11-15T14:01:43;4.03;;;2.10;;
21168;SDS011;10742;51.816;8.662;2022-11-15T14:05:15;2.87;;;1.83;;
21168;SDS011;10742;51.816;8.662;2022-11-15T14:08:39;4.73;;;2.20;;
21168;SDS011;10742;51.816;8.662;2022-11-15T14:12:33;2.63;;;1.60;;
21168;SDS011;10742;51.816;8.662;2022-11-15T14:16:12;2.43;;;1.77;;
21168;SDS011;10742;51.816;8.662;2022-11-15T14:19:36;4.43;;;2.17;;
21168;SDS011;10742;51.816;8.662;2022-11-15T14:23:01;3.87;;;1.90;;
21168;SDS011;10742;51.816;8.662;2022-11-15T14:26:27;6.20;;;1.83;;
21168;SDS011;10742;51.816;8.662;2022-11-15T14:29:50;2.47;;;1.57;;
21168;SDS011;10742;51.816;8.662;2022-11-15T14:33:27;2.97;;;1.97;;
21168;SDS011;10742;51.816;8.662;2022-11-15T14:36:50;6.37;;;1.93;;
21168;SDS011;10742;51.816;8.662;2022-11-15T14:40:13;5.67;;;2.70;;
21168;SDS011;10742;51.816;8.662;2022-11-15T14:43:37;4.40;;;2.50;;
21168;SDS011;10742;51.816;8.662;2022-11-15T14:46:58;8.73;;;3.57;;
21168;SDS011;10742;51.816;8.662;2022-11-15T14:50:20;7.53;;;2.80;;
21168;SDS011;10742;51.816;8.662;2022-11-15T14:53:42;7.40;;;2.33;;
21168;SDS011;10742;51.816;8.662;2022-11-15T14:57:04;5.90;;;2.50;;
21168;SDS011;10742;51.816;8.662;2022-11-15T15:00:25;11.83;;;3.87;;
21168;SDS011;10742;51.816;8.662;2022-11-15T15:03:49;16.03;;;6.77;;
21168;SDS011;10742;51.816;8.662;2022-11-15T15:07:12;9.87;;;4.20;;
21168;SDS011;10742;51.816;8.662;2022-11-15T15:10:34;9.40;;;4.07;;
21168;SDS011;10742;51.816;8.662;2022-11-15T15:13:59;9.60;;;3.23;;
21168;SDS011;10742;51.816;8.662;2022-11-15T15:17:21;14.77;;;5.63;;
21168;SDS011;10742;51.816;8.662;2022-11-15T15:20:43;8.63;;;4.40;;
21168;SDS011;10742;51.816;8.662;2022-11-15T15:24:13;9.20;;;3.10;;
21168;SDS011;10742;51.816;8.662;2022-11-15T15:27:35;7.90;;;3.40;;
21168;SDS011;10742;51.816;8.662;2022-11-15T15:30:56;9.13;;;3.10;;
21168;SDS011;10742;51.816;8.662;2022-11-15T15:34:18;4.87;;;2.50;;
21168;SDS011;10742;51.816;8.662;2022-11-15T15:37:40;5.53;;;2.40;;
21168;SDS011;10742;51.816;8.662;2022-11-15T15:41:02;5.37;;;2.40;;
21168;SDS011;10742;51.816;8.662;2022-11-15T15:44:25;4.73;;;2.20;;
21168;SDS011;10742;51.816;8.662;2022-11-15T15:47:47;3.93;;;2.03;;
21168;SDS011;10742;51.816;8.662;2022-11-15T15:50:51;5.20;;;2.23;;
21168;SDS011;10742;51.816;8.662;2022-11-15T15:53:54;7.17;;;1.90;;
21168;SDS011;10742;51.816;8.662;2022-11-15T15:56:58;2.73;;;2.00;;
21168;SDS011;10742;51.816;8.662;2022-11-15T16:00:02;6.90;;;2.20;;
21168;SDS011;10742;51.816;8.662;2022-11-15T16:03:12;5.27;;;2.03;;
21168;SDS011;10742;51.816;8.662;2022-11-15T16:06:35;7.87;;;3.07;;
21168;SDS011;10742;51.816;8.662;2022-11-15T16:09:40;10.27;;;4.70;;
21168;SDS011;10742;51.816;8.662;2022-11-15T16:13:01;6.03;;;2.27;;
21168;SDS011;10742;51.816;8.662;2022-11-15T16:16:04;120.23;;;65.97;;
21168;SDS011;10742;51.816;8.662;2022-11-15T16:19:11;45.83;;;26.27;;
21168;SDS011;10742;51.816;8.662;2022-11-15T16:22:13;24.73;;;12.10;;
21168;SDS011;10742;51.816;8.662;2022-11-15T16:25:16;9.33;;;4.17;;
21168;SDS011;10742;51.816;8.662;2022-11-15T16:31:23;7.67;;;4.60;;
21168;SDS011;10742;51.816;8.662;2022-11-15T16:34:25;6.30;;;3.30;;
21168;SDS011;10742;51.816;8.662;2022-11-15T16:37:30;3.97;;;2.50;;
21168;SDS011;10742;51.816;8.662;2022-11-15T16:40:33;3.10;;;2.00;;
21168;SDS011;10742;51.816;8.662;2022-11-15T16:43:37;4.47;;;2.33;;
21168;SDS011;10742;51.816;8.662;2022-11-15T16:46:42;3.50;;;2.03;;
21168;SDS011;10742;51.816;8.662;2022-11-15T16:49:47;6.03;;;2.00;;
21168;SDS011;10742;51.816;8.662;2022-11-15T16:52:50;3.30;;;2.23;;
21168;SDS011;10742;51.816;8.662;2022-11-15T16:55:59;6.97;;;3.33;;
21168;SDS011;10742;51.816;8.662;2022-11-15T16:59:02;7.20;;;3.33;;
21168;SDS011;10742;51.816;8.662;2022-11-15T17:02:08;10.07;;;4.20;;
21168;SDS011;10742;51.816;8.662;2022-11-15T17:05:14;7.83;;;4.03;;
21168;SDS011;10742;51.816;8.662;2022-11-15T17:08:20;7.40;;;3.80;;
21168;SDS011;10742;51.816;8.662;2022-11-15T17:11:25;9.20;;;3.53;;
21168;SDS011;10742;51.816;8.662;2022-11-15T17:14:27;6.13;;;3.23;;
21168;SDS011;10742;51.816;8.662;2022-11-15T17:17:30;6.37;;;2.73;;
21168;SDS011;10742;51.816;8.662;2022-11-15T17:20:33;3.73;;;2.40;;
21168;SDS011;10742;51.816;8.662;2022-11-15T17:23:36;6.10;;;2.87;;
21168;SDS011;10742;51.816;8.662;2022-11-15T17:26:38;3.80;;;2.40;;
21168;SDS011;10742;51.816;8.662;2022-11-15T17:29:42;2.80;;;2.10;;
21168;SDS011;10742;51.816;8.662;2022-11-15T17:32:44;4.73;;;2.43;;
21168;SDS011;10742;51.816;8.662;2022-11-15T17:35:58;7.93;;;2.53;;
21168;SDS011;10742;51.816;8.662;2022-11-15T17:39:02;4.83;;;2.70;;
21168;SDS011;10742;51.816;8.662;2022-11-15T17:42:06;4.13;;;2.77;;
21168;SDS011;10742;51.816;8.662;2022-11-15T17:45:09;6.03;;;3.60;;
21168;SDS011;10742;51.816;8.662;2022-11-15T17:48:12;5.77;;;2.63;;
21168;SDS011;10742;51.816;8.662;2022-11-15T17:51:16;4.80;;;2.73;;
21168;SDS011;10742;51.816;8.662;2022-11-15T17:54:20;4.70;;;2.50;;
21168;SDS011;10742;51.816;8.662;2022-11-15T17:57:23;5.57;;;2.47;;
21168;SDS011;10742;51.816;8.662;2022-11-15T18:00:26;4.67;;;2.60;;
21168;SDS011;10742;51.816;8.662;2022-11-15T18:03:31;3.53;;;2.57;;
21168;SDS011;10742;51.816;8.662;2022-11-15T18:06:35;3.40;;;2.30;;
21168;SDS011;10742;51.816;8.662;2022-11-15T18:09:37;5.53;;;2.40;;
21168;SDS011;10742;51.816;8.662;2022-11-15T18:12:43;6.10;;;2.80;;
21168;SDS011;10742;51.816;8.662;2022-11-15T18:15:52;17.23;;;7.07;;
21168;SDS011;10742;51.816;8.662;2022-11-15T18:18:56;21.20;;;7.07;;
21168;SDS011;10742;51.816;8.662;2022-11-15T18:21:59;24.53;;;10.43;;
21168;SDS011;10742;51.816;8.662;2022-11-15T18:25:02;10.10;;;4.50;;
21168;SDS011;10742;51.816;8.662;2022-11-15T18:28:05;8.43;;;3.00;;
21168;SDS011;10742;51.816;8.662;2022-11-15T18:31:15;3.50;;;2.30;;
21168;SDS011;10742;51.816;8.662;2022-11-15T18:34:23;3.90;;;2.23;;
21168;SDS011;10742;51.816;8.662;2022-11-15T18:37:27;4.63;;;2.57;;
21168;SDS011;10742;51.816;8.662;2022-11-15T18:40:29;4.43;;;2.27;;
21168;SDS011;10742;51.816;8.662;2022-11-15T18:43:32;4.00;;;2.43;;
21168;SDS011;10742;51.816;8.662;2022-11-15T18:46:35;3.73;;;2.30;;
21168;SDS011;10742;51.816;8.662;2022-11-15T18:49:37;6.70;;;3.53;;
21168;SDS011;10742;51.816;8.662;2022-11-15T18:52:40;7.13;;;3.77;;
21168;SDS011;10742;51.816;8.662;2022-11-15T18:55:42;6.00;;;3.30;;
21168;SDS011;10742;51.816;8.662;2022-11-15T18:58:46;6.77;;;3.10;;
21168;SDS011;10742;51.816;8.662;2022-11-15T19:01:49;5.53;;;2.67;;
21168;SDS011;10742;51.816;8.662;2022-11-15T19:04:53;4.63;;;2.50;;
21168;SDS011;10742;51.816;8.662;2022-11-15T19:07:55;8.43;;;3.33;;
21168;SDS011;10742;51.816;8.662;2022-11-15T19:11:02;8.67;;;3.80;;
21168;SDS011;10742;51.816;8.662;2022-11-15T19:14:16;4.50;;;2.57;;
21168;SDS011;10742;51.816;8.662;2022-11-15T19:17:19;5.33;;;3.10;;
21168;SDS011;10742;51.816;8.662;2022-11-15T19:20:21;6.07;;;2.60;;
21168;SDS011;10742;51.816;8.662;2022-11-15T19:23:24;8.23;;;2.83;;
21168;SDS011;10742;51.816;8.662;2022-11-15T19:26:27;8.90;;;4.13;;
21168;SDS011;10742;51.816;8.662;2022-11-15T19:29:30;5.80;;;2.80;;
21168;SDS011;10742;51.816;8.662;2022-11-15T19:32:32;6.73;;;3.13;;
21168;SDS011;10742;51.816;8.662;2022-11-15T19:35:35;6.50;;;3.17;;
21168;SDS011;10742;51.816;8.662;2022-11-15T19:38:38;8.70;;;3.90;;
21168;SDS011;10742;51.816;8.662;2022-11-15T19:41:41;5.50;;;3.00;;
21168;SDS011;10742;51.816;8.662;2022-11-15T19:44:44;8.70;;;3.10;;
21168;SDS011;10742;51.816;8.662;2022-11-15T19:47:47;3.60;;;2.80;;
21168;SDS011;10742;51.816;8.662;2022-11-15T19:50:49;6.10;;;3.13;;
21168;SDS011;10742;51.816;8.662;2022-11-15T19:53:53;8.60;;;3.73;;
21168;SDS011;10742;51.816;8.662;2022-11-15T19:56:57;31.67;;;12.23;;
21168;SDS011;10742;51.816;8.662;2022-11-15T20:00:00;14.53;;;5.50;;
21168;SDS011;10742;51.816;8.662;2022-11-15T20:03:07;6.90;;;3.27;;
21168;SDS011;10742;51.816;8.662;2022-11-15T20:06:10;3.80;;;2.53;;
21168;SDS011;10742;51.816;8.662;2022-11-15T20:09:16;5.17;;;2.70;;
21168;SDS011;10742;51.816;8.662;2022-11-15T20:12:19;5.77;;;2.60;;
21168;SDS011;10742;51.816;8.662;2022-11-15T20:15:41;4.97;;;2.70;;
21168;SDS011;10742;51.816;8.662;2022-11-15T20:19:03;6.37;;;2.30;;
21168;SDS011;10742;51.816;8.662;2022-11-15T20:22:24;7.10;;;3.30;;
21168;SDS011;10742;51.816;8.662;2022-11-15T20:25:46;5.13;;;2.77;;
21168;SDS011;10742;51.816;8.662;2022-11-15T20:29:08;4.63;;;2.80;;
21168;SDS011;10742;51.816;8.662;2022-11-15T20:32:30;6.00;;;2.80;;
21168;SDS011;10742;51.816;8.662;2022-11-15T20:35:52;8.07;;;3.10;;
21168;SDS011;10742;51.816;8.662;2022-11-15T20:39:13;5.40;;;2.73;;
21168;SDS011;10742;51.816;8.662;2022-11-15T20:42:34;3.07;;;2.30;;
21168;SDS011;10742;51.816;8.662;2022-11-15T20:45:57;6.13;;;2.47;;
21168;SDS011;10742;51.816;8.662;2022-11-15T20:49:18;5.07;;;2.60;;
21168;SDS011;10742;51.816;8.662;2022-11-15T20:52:20;3.20;;;2.33;;
21168;SDS011;10742;51.816;8.662;2022-11-15T20:55:23;4.83;;;2.30;;
21168;SDS011;10742;51.816;8.662;2022-11-15T20:58:26;3.13;;;2.30;;
21168;SDS011;10742;51.816;8.662;2022-11-15T21:01:30;3.30;;;2.33;;
21168;SDS011;10742;51.816;8.662;2022-11-15T21:04:33;4.73;;;2.57;;
21168;SDS011;10742;51.816;8.662;2022-11-15T21:07:35;5.97;;;2.50;;
21168;SDS011;10742;51.816;8.662;2022-11-15T21:10:38;3.77;;;2.40;;
21168;SDS011;10742;51.816;8.662;2022-11-15T21:14:00;2.80;;;2.20;;
21168;SDS011;10742;51.816;8.662;2022-11-15T21:17:06;3.50;;;1.83;;
21168;SDS011;10742;51.816;8.662;2022-11-15T21:20:09;4.97;;;2.20;;
21168;SDS011;10742;51.816;8.662;2022-11-15T21:23:12;5.00;;;2.53;;
21168;SDS011;10742;51.816;8.662;2022-11-15T21:26:15;3.70;;;2.30;;
21168;SDS011;10742;51.816;8.662;2022-11-15T21:29:17;3.10;;;2.20;;
21168;SDS011;10742;51.816;8.662;2022-11-15T21:32:20;8.33;;;2.70;;
21168;SDS011;10742;51.816;8.662;2022-11-15T21:35:22;2.90;;;2.47;;
21168;SDS011;10742;51.816;8.662;2022-11-15T21:38:26;6.37;;;2.50;;
21168;SDS011;10742;51.816;8.662;2022-11-15T21:41:29;4.53;;;2.50;;
21168;SDS011;10742;51.816;8.662;2022-11-15T21:44:32;4.87;;;2.47;;
21168;SDS011;10742;51.816;8.662;2022-11-15T21:47:34;4.90;;;2.57;;
21168;SDS011;10742;51.816;8.662;2022-11-15T21:50:37;6.83;;;2.67;;